Meador Grove, Texas
Current Conditions -  °F | °C
As of 3:55 AM on Thursday 23 Oct 2014 (Local Time) from KTPL Reporting Station
Clear Clear  
Wind Chill: 64°   Ceiling: Unl
Heat Index: 64°   Visibility: 10mi
Dew Point: 54°   Wind: 6mph
Humidity: 68%   Direction: 130°SE
Pressure: 30.1"   Gusts: NA
Location:  31.2688°N, 97.3985°W
Report Text: KTPL 230855Z AUTO 13005KT 10SM CLR 18/12 A3010 RMK AO1 52003
Loading
Personal Weather Stations






























Interactive Weather Map
Tropical Storm Tracking
New forecast layout! Learn more

10-Day Weather Forecast

Advertisements
Track Severe Weather on mobile